createdAt,value
2022-09-12T00:02:15.154Z,80.99
2022-09-12T00:04:50.872Z,80.83
2022-09-12T00:07:18.958Z,80.58
2022-09-12T00:09:49.658Z,81.00
2022-09-12T00:12:22.924Z,81.11
2022-09-12T00:14:56.380Z,81.60
2022-09-12T00:17:32.626Z,81.55
2022-09-12T00:20:07.430Z,81.81
2022-09-12T00:22:41.459Z,81.69
2022-09-12T00:25:17.305Z,81.42
2022-09-12T00:27:47.470Z,81.17
2022-09-12T00:30:19.960Z,81.36
2022-09-12T00:32:48.059Z,81.33
2022-09-12T00:35:18.533Z,80.88
2022-09-12T00:37:45.981Z,81.06
2022-09-12T00:40:16.445Z,81.00
2022-09-12T00:42:48.857Z,80.90
2022-09-12T00:45:28.447Z,80.94
2022-09-12T00:47:56.873Z,80.95
2022-09-12T00:50:24.807Z,80.89
2022-09-12T00:53:07.371Z,81.07
2022-09-12T00:55:36.996Z,80.71
2022-09-12T00:58:09.750Z,80.98
2022-09-12T01:00:36.897Z,81.12
2022-09-12T01:03:14.802Z,81.00
2022-09-12T01:05:47.017Z,80.89
2022-09-12T01:08:13.831Z,80.97
2022-09-12T01:10:41.057Z,80.88
2022-09-12T01:13:09.284Z,81.11
2022-09-12T01:15:40.025Z,80.75
2022-09-12T01:18:28.430Z,80.76
2022-09-12T01:21:07.116Z,81.07
2022-09-12T01:23:55.101Z,81.25
2022-09-12T01:26:40.100Z,81.41
2022-09-12T01:29:25.399Z,81.74
2022-09-12T01:32:24.118Z,81.98
2022-09-12T01:35:02.688Z,81.97
2022-09-12T01:37:34.290Z,81.68
2022-09-12T01:40:14.747Z,81.75
2022-09-12T01:43:21.347Z,81.74
2022-09-12T01:45:57.037Z,81.68
2022-09-12T01:48:31.315Z,81.96
2022-09-12T01:51:14.028Z,82.37
2022-09-12T01:53:51.549Z,82.19
2022-09-12T01:56:26.879Z,82.45
2022-09-12T01:59:04.020Z,82.13
2022-09-12T02:01:42.023Z,82.02
2022-09-12T02:04:34.226Z,82.04
2022-09-12T02:07:11.029Z,81.77
2022-09-12T02:09:47.731Z,81.46
2022-09-12T02:12:17.618Z,81.68
2022-09-12T02:14:52.143Z,81.63
2022-09-12T02:17:21.604Z,81.71
2022-09-12T02:20:14.594Z,82.01
2022-09-12T02:22:48.658Z,81.87
2022-09-12T02:25:18.192Z,81.93
2022-09-12T02:27:48.378Z,82.44
2022-09-12T02:30:19.635Z,82.54
2022-09-12T02:33:01.830Z,82.42
2022-09-12T02:35:50.293Z,82.61
2022-09-12T02:38:37.159Z,82.37
2022-09-12T02:41:04.105Z,82.27
2022-09-12T02:43:33.713Z,82.44
2022-09-12T02:46:09.381Z,82.72
2022-09-12T02:48:45.384Z,82.69
2022-09-12T02:51:20.305Z,82.72
2022-09-12T02:53:51.949Z,83.17
2022-09-12T02:56:30.281Z,82.98
2022-09-12T02:59:08.002Z,82.87
2022-09-12T03:01:57.582Z,82.49
2022-09-12T03:04:30.309Z,82.69
2022-09-12T03:07:18.680Z,82.78
2022-09-12T03:10:01.546Z,83.06
2022-09-12T03:13:05.007Z,82.87
2022-09-12T03:16:04.242Z,82.70
2022-09-12T03:18:45.839Z,82.98
2022-09-12T03:21:26.534Z,83.09
2022-09-12T03:24:16.641Z,83.22
2022-09-12T03:26:48.120Z,83.41
2022-09-12T03:29:15.493Z,83.20
2022-09-12T03:31:50.117Z,83.23
2022-09-12T03:34:16.881Z,83.60
2022-09-12T03:36:43.540Z,83.10
2022-09-12T03:39:10.187Z,83.25
2022-09-12T03:41:36.919Z,83.22
2022-09-12T03:44:04.703Z,83.59
2022-09-12T03:46:31.365Z,83.58
2022-09-12T03:48:58.176Z,83.76
2022-09-12T03:51:24.883Z,83.92
2022-09-12T03:53:51.681Z,84.27
2022-09-12T03:56:19.474Z,84.55
2022-09-12T03:58:46.475Z,84.57
2022-09-12T04:01:15.915Z,84.78
2022-09-12T04:03:44.160Z,84.41
2022-09-12T04:06:13.339Z,84.90
2022-09-12T04:08:40.311Z,84.94
2022-09-12T04:11:15.006Z,84.96
2022-09-12T04:13:43.372Z,85.32
2022-09-12T04:16:10.835Z,85.30
2022-09-12T04:18:37.574Z,85.33
2022-09-12T04:21:07.077Z,85.11
2022-09-12T04:23:33.968Z,85.47
2022-09-12T04:26:02.280Z,85.48
2022-09-12T04:28:30.109Z,85.30
2022-09-12T04:30:57.531Z,85.48
2022-09-12T04:33:24.265Z,85.15
2022-09-12T04:35:50.960Z,84.86
2022-09-12T04:38:17.620Z,84.70
2022-09-12T04:40:44.285Z,84.51
2022-09-12T04:43:14.422Z,84.33
2022-09-12T04:45:41.494Z,84.30
2022-09-12T04:48:08.152Z,84.32
2022-09-12T04:50:34.784Z,84.25
2022-09-12T04:53:01.555Z,84.09
2022-09-12T04:55:28.234Z,83.70
2022-09-12T04:57:54.960Z,83.53
2022-09-12T05:00:21.847Z,83.66
2022-09-12T05:02:48.566Z,83.32
2022-09-12T05:05:15.373Z,83.15
2022-09-12T05:12:03.170Z,83.14
2022-09-12T05:14:25.615Z,83.04
2022-09-12T05:16:52.247Z,83.34
2022-09-12T05:19:18.888Z,83.06
2022-09-12T05:21:45.532Z,83.40
2022-09-12T05:24:12.194Z,82.97
2022-09-12T05:26:38.865Z,83.31
2022-09-12T05:29:07.183Z,83.10
2022-09-12T05:31:34.036Z,83.24
2022-09-12T05:34:00.694Z,83.29
2022-09-12T05:36:30.615Z,83.32
2022-09-12T05:38:57.247Z,83.30
2022-09-12T05:41:32.983Z,83.49
2022-09-12T05:44:05.355Z,83.41
2022-09-12T05:46:37.183Z,83.27
2022-09-12T05:49:05.722Z,83.46
2022-09-12T05:51:34.729Z,83.64
2022-09-12T05:54:03.442Z,83.70
2022-09-12T05:56:32.295Z,83.62
2022-09-12T05:59:04.138Z,83.36
2022-09-12T06:01:32.199Z,83.57
2022-09-12T06:04:02.715Z,83.40
2022-09-12T06:06:30.419Z,83.54
2022-09-12T06:09:00.649Z,83.32
2022-09-12T06:11:29.692Z,83.33
2022-09-12T06:13:57.951Z,83.24
2022-09-12T06:16:27.065Z,83.35
2022-09-12T06:18:57.790Z,83.36
2022-09-12T06:21:26.596Z,83.12
2022-09-12T06:23:55.186Z,83.16
2022-09-12T06:26:23.607Z,83.14
2022-09-12T06:28:50.656Z,82.87
2022-09-12T06:31:20.913Z,82.53
2022-09-12T06:33:50.317Z,82.83
2022-09-12T06:36:19.746Z,82.59
2022-09-12T06:38:46.530Z,82.27
2022-09-12T06:41:13.755Z,82.34
2022-09-12T06:43:41.529Z,82.32
2022-09-12T06:46:09.656Z,81.79
2022-09-12T06:48:41.590Z,81.98
2022-09-12T06:51:17.320Z,82.28
2022-09-12T06:53:44.824Z,82.10
2022-09-12T06:56:14.055Z,81.76
2022-09-12T06:58:41.841Z,81.88
2022-09-12T07:01:14.259Z,81.60
2022-09-12T07:03:41.825Z,82.06
2022-09-12T07:06:11.048Z,82.01
2022-09-12T07:08:38.594Z,81.67
2022-09-12T07:11:26.188Z,81.92
2022-09-12T07:13:56.145Z,82.12
2022-09-12T07:16:23.821Z,82.44
2022-09-12T07:18:52.514Z,82.47
2022-09-12T07:21:19.604Z,82.37
2022-09-12T07:23:46.971Z,82.69
2022-09-12T07:26:15.015Z,82.60
2022-09-12T07:28:42.022Z,82.27
2022-09-12T07:31:14.502Z,82.40
2022-09-12T07:33:42.121Z,82.28
2022-09-12T07:36:12.330Z,82.25
2022-09-12T07:38:39.566Z,82.63
2022-09-12T07:41:23.702Z,82.43
2022-09-12T07:43:54.897Z,82.56
2022-09-12T07:46:22.542Z,82.88
2022-09-12T07:48:50.211Z,83.05
2022-09-12T07:51:17.538Z,82.93
2022-09-12T07:53:44.343Z,82.45
2022-09-12T07:56:12.202Z,82.35
2022-09-12T07:58:43.294Z,82.16
2022-09-12T08:01:13.981Z,82.11
2022-09-12T08:03:41.218Z,81.92
2022-09-12T08:06:14.055Z,81.13
2022-09-12T08:08:41.220Z,81.28
2022-09-12T08:11:10.505Z,80.93
2022-09-12T08:13:38.405Z,80.50
2022-09-12T08:16:08.227Z,80.24
2022-09-12T08:18:36.447Z,80.30
2022-09-12T08:21:08.421Z,79.86
2022-09-12T08:23:35.160Z,79.53
2022-09-12T08:26:06.368Z,79.04
2022-09-12T08:28:35.115Z,78.26
2022-09-12T08:31:03.379Z,78.20
2022-09-12T08:33:33.753Z,77.67
2022-09-12T08:36:10.423Z,77.59
2022-09-12T08:38:38.853Z,77.98
2022-09-12T08:41:15.377Z,77.81
2022-09-12T08:44:03.359Z,77.53
2022-09-12T08:47:04.192Z,77.17
2022-09-12T08:49:36.999Z,76.77
2022-09-12T08:52:09.852Z,76.40
2022-09-12T08:54:36.570Z,76.06
2022-09-12T08:57:04.719Z,75.89
2022-09-12T08:59:37.014Z,75.85
2022-09-12T09:02:13.854Z,76.17
2022-09-12T09:04:51.616Z,75.86
2022-09-12T09:07:50.341Z,75.36
2022-09-12T09:10:32.729Z,74.98
2022-09-12T09:13:40.809Z,74.97
2022-09-12T09:16:13.894Z,74.55
2022-09-12T09:18:45.919Z,73.86
2022-09-12T09:21:21.942Z,73.04
2022-09-12T09:23:53.012Z,72.41
2022-09-12T09:26:26.672Z,71.37
2022-09-12T09:29:06.563Z,70.71
2022-09-12T09:31:38.113Z,70.65
2022-09-12T09:34:14.769Z,70.38
2022-09-12T09:37:07.230Z,69.71
2022-09-12T09:39:52.432Z,69.82
2022-09-12T09:42:41.944Z,69.25
2022-09-12T09:45:17.544Z,68.49
2022-09-12T09:47:47.158Z,68.39
2022-09-12T09:50:16.933Z,67.58
2022-09-12T09:52:44.006Z,67.75
2022-09-12T09:55:17.661Z,66.49
2022-09-12T09:57:45.594Z,66.52
2022-09-12T10:00:32.237Z,65.75
2022-09-12T10:03:13.935Z,65.97
2022-09-12T10:05:51.430Z,65.85
2022-09-12T10:08:26.760Z,65.43
2022-09-12T10:11:07.584Z,65.48
2022-09-12T10:13:35.792Z,65.76
2022-09-12T10:16:06.174Z,65.74
2022-09-12T10:18:43.024Z,65.20
2022-09-12T10:21:15.543Z,64.59
2022-09-12T10:23:42.486Z,64.31
2022-09-12T10:26:11.492Z,63.85
2022-09-12T10:28:49.733Z,63.76
2022-09-12T10:31:29.026Z,64.03
2022-09-12T10:33:59.981Z,63.50
2022-09-12T10:36:36.015Z,63.35
2022-09-12T10:39:02.891Z,63.18
2022-09-12T10:41:37.229Z,62.97
2022-09-12T10:44:09.981Z,63.00
2022-09-12T10:46:36.656Z,62.35
2022-09-12T10:49:14.095Z,62.17
2022-09-12T10:51:40.841Z,61.45
2022-09-12T10:54:10.444Z,61.05
2022-09-12T10:57:02.128Z,60.77
2022-09-12T10:59:41.207Z,60.65
2022-09-12T11:02:31.156Z,60.12
2022-09-12T11:05:37.394Z,60.18
2022-09-12T11:08:29.407Z,59.54
2022-09-12T11:11:39.259Z,59.77
2022-09-12T11:14:54.162Z,59.86
2022-09-12T11:17:54.858Z,59.99
2022-09-12T11:20:30.541Z,59.53
2022-09-12T11:23:25.082Z,59.13
2022-09-12T11:26:19.265Z,59.25
2022-09-12T11:29:16.132Z,59.24
2022-09-12T11:31:55.663Z,59.41
2022-09-12T11:34:53.474Z,59.12
2022-09-12T11:37:43.760Z,58.97
2022-09-12T11:40:20.597Z,58.40
2022-09-12T11:42:49.817Z,57.73
2022-09-12T11:45:23.462Z,57.51
2022-09-12T11:47:53.849Z,56.52
2022-09-12T11:50:26.406Z,56.33
2022-09-12T11:52:58.206Z,56.46
2022-09-12T11:55:28.382Z,56.83
2022-09-12T11:57:56.723Z,56.95
2022-09-12T12:00:28.077Z,56.93
2022-09-12T12:03:14.312Z,56.59
2022-09-12T12:06:06.242Z,56.94
2022-09-12T12:08:38.518Z,57.22
2022-09-12T12:11:08.157Z,56.95
2022-09-12T12:13:39.426Z,57.20
2022-09-12T12:16:25.362Z,58.04
2022-09-12T12:18:59.343Z,57.26
2022-09-12T12:21:32.137Z,57.06
2022-09-12T12:24:08.014Z,56.02
2022-09-12T12:26:44.481Z,55.54
2022-09-12T12:29:17.219Z,55.26
2022-09-12T12:31:59.281Z,55.28
2022-09-12T12:34:29.931Z,54.58
2022-09-12T12:36:56.789Z,54.50
2022-09-12T12:39:43.487Z,54.24
2022-09-12T12:42:10.337Z,54.43
2022-09-12T12:44:47.339Z,53.49
2022-09-12T12:47:20.348Z,53.24
2022-09-12T12:50:10.445Z,53.17
2022-09-12T12:52:47.686Z,53.12
2022-09-12T12:55:22.926Z,53.33
2022-09-12T12:57:51.374Z,53.33
2022-09-12T13:00:21.120Z,53.09
2022-09-12T13:03:02.118Z,52.80
2022-09-12T13:05:31.402Z,53.12
2022-09-12T13:08:10.233Z,52.35
2022-09-12T13:10:37.117Z,52.55
2022-09-12T13:13:07.033Z,52.68
2022-09-12T13:15:36.797Z,52.18
2022-09-12T13:18:11.442Z,52.16
2022-09-12T13:20:48.426Z,51.95
2022-09-12T13:23:26.319Z,52.44
2022-09-12T13:25:55.463Z,52.57
2022-09-12T13:28:22.342Z,52.67
2022-09-12T13:30:58.600Z,52.23
2022-09-12T13:33:39.781Z,52.36
2022-09-12T13:36:13.543Z,52.51
2022-09-12T13:39:08.639Z,52.21
2022-09-12T13:42:03.295Z,51.36
2022-09-12T13:44:31.173Z,51.43
2022-09-12T13:47:00.505Z,50.92
2022-09-12T13:49:35.283Z,50.72
2022-09-12T13:52:04.312Z,51.10
2022-09-12T13:54:31.486Z,51.10
2022-09-12T13:56:59.816Z,51.34
2022-09-12T13:59:26.530Z,51.30
2022-09-12T14:01:53.231Z,51.58
2022-09-12T14:04:41.277Z,51.79
2022-09-12T14:07:20.326Z,51.93
2022-09-12T14:09:57.127Z,52.00
2022-09-12T14:12:34.287Z,51.44
2022-09-12T14:15:01.428Z,51.49
2022-09-12T14:17:36.210Z,51.51
2022-09-12T14:20:08.986Z,51.19
2022-09-12T14:22:36.464Z,51.30
2022-09-12T14:25:04.053Z,51.10
2022-09-12T14:27:41.341Z,51.60
2022-09-12T14:30:19.115Z,52.07
2022-09-12T14:33:11.492Z,52.18
2022-09-12T14:35:43.115Z,52.30
2022-09-12T14:38:10.138Z,52.06
2022-09-12T14:40:48.591Z,52.41
2022-09-12T14:43:21.806Z,52.41
2022-09-12T14:45:59.797Z,51.97
2022-09-12T14:48:29.330Z,51.81
2022-09-12T14:50:56.016Z,52.19
2022-09-12T14:53:37.382Z,52.35
2022-09-12T14:56:12.515Z,52.37
2022-09-12T14:58:40.717Z,53.11
2022-09-12T15:01:07.394Z,53.29
2022-09-12T15:03:51.926Z,53.03
2022-09-12T15:06:30.826Z,53.38
2022-09-12T15:09:00.463Z,53.38
2022-09-12T15:11:27.106Z,52.92
2022-09-12T15:13:54.562Z,53.41
2022-09-12T15:16:21.336Z,53.25
2022-09-12T15:18:48.020Z,52.99
2022-09-12T15:21:17.889Z,53.12
2022-09-12T15:23:46.241Z,53.39
2022-09-12T15:26:15.335Z,53.27
2022-09-12T15:28:42.049Z,53.51
2022-09-12T15:31:16.133Z,54.04
2022-09-12T15:33:42.905Z,53.85
2022-09-12T15:36:15.528Z,54.16
2022-09-12T15:38:42.787Z,53.96
2022-09-12T15:41:15.564Z,54.63
2022-09-12T15:43:42.398Z,54.96
2022-09-12T15:46:13.465Z,54.96
2022-09-12T15:48:40.424Z,55.12
2022-09-12T15:51:15.774Z,55.16
2022-09-12T15:53:43.140Z,55.53
2022-09-12T15:56:10.182Z,55.59
2022-09-12T15:58:49.756Z,55.63
2022-09-12T16:01:24.497Z,55.76
2022-09-12T16:03:51.201Z,55.56
2022-09-12T16:06:17.937Z,55.63
2022-09-12T16:08:44.809Z,56.05
2022-09-12T16:11:23.034Z,55.31
2022-09-12T16:13:51.986Z,55.98
2022-09-12T16:16:18.758Z,55.66
2022-09-12T16:18:45.640Z,56.16
2022-09-12T16:21:15.527Z,56.32
2022-09-12T16:23:47.183Z,56.23
2022-09-12T16:26:14.436Z,56.73
2022-09-12T16:28:41.414Z,56.57
2022-09-12T16:31:11.299Z,57.19
2022-09-12T16:33:39.123Z,57.42
2022-09-12T16:36:11.577Z,57.79
2022-09-12T16:38:46.935Z,57.91
2022-09-12T16:41:17.921Z,58.67
2022-09-12T16:43:45.801Z,59.14
2022-09-12T16:46:16.660Z,59.11
2022-09-12T16:48:52.675Z,59.63
2022-09-12T16:51:21.947Z,60.19
2022-09-12T16:53:49.410Z,60.73
2022-09-12T16:56:22.707Z,60.78
2022-09-12T16:58:50.792Z,60.97
2022-09-12T17:01:20.358Z,60.65
2022-09-12T17:03:47.700Z,60.48
2022-09-12T17:06:16.898Z,60.64
2022-09-12T17:08:49.529Z,60.50
2022-09-12T17:11:22.067Z,60.75
2022-09-12T17:14:04.289Z,60.90
2022-09-12T17:16:35.921Z,61.33
2022-09-12T17:19:03.234Z,61.82
2022-09-12T17:21:30.203Z,61.94
2022-09-12T17:23:56.912Z,62.21
2022-09-12T17:26:23.631Z,62.96
2022-09-12T17:28:50.676Z,62.85
2022-09-12T17:31:17.487Z,63.27
2022-09-12T17:33:44.226Z,63.75
2022-09-12T17:36:15.206Z,63.91
2022-09-12T17:38:43.604Z,64.22
2022-09-12T17:41:18.904Z,63.94
2022-09-12T17:43:47.503Z,64.29
2022-09-12T17:46:14.712Z,64.64
2022-09-12T17:48:41.858Z,65.00
2022-09-12T17:51:13.751Z,65.21
2022-09-12T17:53:41.515Z,66.01
2022-09-12T17:56:09.380Z,66.00
2022-09-12T17:58:38.613Z,66.32
2022-09-12T18:01:26.475Z,65.99
2022-09-12T18:03:56.815Z,66.97
2022-09-12T18:06:24.519Z,67.63
2022-09-12T18:08:51.241Z,67.63
2022-09-12T18:11:18.186Z,67.62
2022-09-12T18:13:46.314Z,67.68
2022-09-12T18:16:13.925Z,67.86
2022-09-12T18:18:41.076Z,68.68
2022-09-12T18:21:09.110Z,69.30
2022-09-12T18:23:35.797Z,69.38
2022-09-12T18:26:04.710Z,69.78
2022-09-12T18:28:35.578Z,70.41
2022-09-12T18:31:02.563Z,70.74
2022-09-12T18:33:29.233Z,70.73
2022-09-12T18:35:55.907Z,70.60
2022-09-12T18:38:22.797Z,70.96
2022-09-12T18:40:49.742Z,70.87
2022-09-12T18:43:16.690Z,71.10
2022-09-12T18:45:43.350Z,71.17
2022-09-12T18:48:10.399Z,71.47
2022-09-12T18:50:37.039Z,71.72
2022-09-12T18:53:03.673Z,71.83
2022-09-12T18:55:30.883Z,71.90
2022-09-12T18:57:58.956Z,71.78
2022-09-12T19:00:26.010Z,72.14
2022-09-12T19:02:53.060Z,72.42
2022-09-12T19:05:19.794Z,72.31
2022-09-12T19:07:46.732Z,72.44
2022-09-12T19:10:13.460Z,72.69
2022-09-12T19:12:40.200Z,72.75
2022-09-12T19:15:09.844Z,72.59
2022-09-12T19:17:36.824Z,72.94
2022-09-12T19:20:05.875Z,73.55
2022-09-12T19:22:32.594Z,73.74
2022-09-12T19:24:59.214Z,73.78
2022-09-12T19:27:25.943Z,73.78
2022-09-12T19:29:53.169Z,74.05
2022-09-12T19:32:20.113Z,74.21
2022-09-12T19:34:46.833Z,74.16
2022-09-12T19:37:13.491Z,74.39
2022-09-12T19:39:44.441Z,74.26
2022-09-12T19:42:11.983Z,74.60
2022-09-12T19:44:38.881Z,74.64
2022-09-12T19:47:05.571Z,74.73
2022-09-12T19:49:32.442Z,74.59
2022-09-12T19:52:00.448Z,75.21
2022-09-12T19:54:27.371Z,74.84
2022-09-12T19:56:54.391Z,75.13
2022-09-12T19:59:21.104Z,75.61
2022-09-12T20:01:47.821Z,75.70
2022-09-12T20:04:14.854Z,75.77
2022-09-12T20:06:41.843Z,76.15
2022-09-12T20:09:09.146Z,75.87
2022-09-12T20:11:35.815Z,76.22
2022-09-12T20:14:02.611Z,76.50
2022-09-12T20:16:30.155Z,76.79
2022-09-12T20:18:59.271Z,76.96
2022-09-12T20:21:31.905Z,76.87
2022-09-12T20:24:03.082Z,77.16
2022-09-12T20:26:29.855Z,77.12
2022-09-12T20:28:56.539Z,77.46
2022-09-12T20:31:23.445Z,77.34
2022-09-12T20:33:52.061Z,77.14
2022-09-12T20:36:20.240Z,77.19
2022-09-12T20:38:52.075Z,77.71
2022-09-12T20:41:22.210Z,77.35
2022-09-12T20:43:50.264Z,77.55
2022-09-12T20:46:21.416Z,77.33
2022-09-12T20:48:48.731Z,77.29
2022-09-12T20:51:15.458Z,77.40
2022-09-12T20:53:42.156Z,77.36
2022-09-12T20:56:08.835Z,77.93
2022-09-12T20:58:36.868Z,77.75
2022-09-12T21:01:11.498Z,77.65
2022-09-12T21:03:39.120Z,77.90
2022-09-12T21:06:07.029Z,77.74
2022-09-12T21:08:34.673Z,77.91
2022-09-12T21:11:01.895Z,77.59
2022-09-12T21:13:28.642Z,77.60
2022-09-12T21:16:03.457Z,77.53
2022-09-12T21:18:30.756Z,77.23
2022-09-12T21:20:57.800Z,77.55
2022-09-12T21:23:25.599Z,77.27
2022-09-12T21:25:52.901Z,77.25
2022-09-12T21:28:20.616Z,77.05
2022-09-12T21:30:48.664Z,77.09
2022-09-12T21:33:15.559Z,77.08
2022-09-12T21:35:42.240Z,77.07
2022-09-12T21:38:09.419Z,76.87
2022-09-12T21:40:36.139Z,77.18
2022-09-12T21:43:03.389Z,77.08
2022-09-12T21:45:30.116Z,76.96
2022-09-12T21:48:00.380Z,77.13
2022-09-12T21:50:27.006Z,76.76
2022-09-12T21:52:53.660Z,76.87
2022-09-12T21:55:20.403Z,76.65
2022-09-12T21:57:47.083Z,76.53
2022-09-12T22:00:16.158Z,76.98
2022-09-12T22:02:43.399Z,76.56
2022-09-12T22:05:10.505Z,76.64
2022-09-12T22:07:37.552Z,76.60
2022-09-12T22:10:05.054Z,76.54
2022-09-12T22:12:34.464Z,76.64
2022-09-12T22:15:12.790Z,76.82
2022-09-12T22:17:48.149Z,76.76
2022-09-12T22:20:15.007Z,77.02
2022-09-12T22:23:00.544Z,76.66
2022-09-12T22:25:27.235Z,76.56
2022-09-12T22:27:54.391Z,76.80
2022-09-12T22:30:22.093Z,77.00
2022-09-12T22:32:50.096Z,76.74
2022-09-12T22:35:17.518Z,76.82
2022-09-12T22:37:44.667Z,76.84
2022-09-12T22:40:12.060Z,76.85
2022-09-12T22:42:39.067Z,76.96
2022-09-12T22:45:07.323Z,77.20
2022-09-12T22:47:34.212Z,76.93
2022-09-12T22:50:00.865Z,77.19
2022-09-12T22:52:27.528Z,76.87
2022-09-12T22:54:54.218Z,77.31
2022-09-12T22:57:20.891Z,77.00
2022-09-12T22:59:47.570Z,77.02
2022-09-12T23:02:14.389Z,76.94
2022-09-12T23:04:41.027Z,76.97
2022-09-12T23:07:07.695Z,76.92
2022-09-12T23:09:35.566Z,77.36
2022-09-12T23:12:02.914Z,77.09
2022-09-12T23:14:29.581Z,77.13
2022-09-12T23:16:56.306Z,77.13
2022-09-12T23:19:22.958Z,77.29
2022-09-12T23:21:49.601Z,77.04
2022-09-12T23:24:16.368Z,77.08
2022-09-12T23:26:43.307Z,77.09
2022-09-12T23:29:09.980Z,76.79
2022-09-12T23:31:36.758Z,77.08
2022-09-12T23:34:06.016Z,76.77
2022-09-12T23:36:33.653Z,76.91
2022-09-12T23:39:00.757Z,77.11
2022-09-12T23:41:27.863Z,76.94
2022-09-12T23:43:54.523Z,76.86
2022-09-12T23:46:21.391Z,76.91
2022-09-12T23:48:48.311Z,77.14
2022-09-12T23:51:15.438Z,76.87
2022-09-12T23:54:00.803Z,76.82
2022-09-12T23:56:27.471Z,76.75
2022-09-12T23:58:54.132Z,77.01
